^^
Station Historical Data
Daily Summary for June 3, 2017 Units:  English    Metric   Both
« Previous Day
Next Day »
Daily Weekly Monthly Yearly Custom
  High: Low: Average:
Temperature: 75.2 °F 51.2 °F 61.6 °F
Dew Point: 53.8 °F 41.7 °F 46.6 °F
Humidity: 90 % 31 % 61 %
Wind Speed: 13.3 mph 0.0 mph 1.7 mph
Wind Gust: 23.0 mph - -
Wind:- - WNW
Pressure: 30.05 in 29.97 in -
Precipitation: 0.09 in    
Historical Graphs
 
 
Tabular Data for June 3, 2017
Time Temperature Dew Point Pressure Wind Wind Speed Wind Gust Humidity Rainfall Rate (Hourly) solar Conditions
00:03 56.3 °F 43.0 °F 30.00 in Calm     61 % 0.00 in 0.0 W/m2 CLR
00:08 56.1 °F 43.3 °F 30.00 in Calm     62 % 0.00 in 0.0 W/m2 CLR
00:13 55.3 °F 42.9 °F 30.00 in Calm     63 % 0.00 in 0.0 W/m2 CLR
00:18 55.3 °F 42.9 °F 30.00 in Calm     63 % 0.00 in 0.0 W/m2 CLR
00:23 55.3 °F 42.9 °F 30.00 in Calm     63 % 0.00 in 0.0 W/m2 CLR
00:28 55.2 °F 42.8 °F 30.00 in Calm     63 % 0.00 in 0.0 W/m2 CLR
00:33 55.1 °F 43.1 °F 30.00 in Calm     64 % 0.00 in 0.0 W/m2 CLR
00:38 54.9 °F 43.4 °F 30.00 in Calm     65 % 0.00 in 0.0 W/m2 CLR
00:43 54.7 °F 43.2 °F 30.00 in WNW 0.5 mph 2.3 mph 65 % 0.00 in 0.0 W/m2 CLR
00:48 54.2 °F 43.5 °F 30.00 in Calm   2.3 mph 67 % 0.00 in 0.0 W/m2 CLR
00:53 54.0 °F 43.3 °F 30.00 in Calm   2.3 mph 67 % 0.00 in 0.0 W/m2 CLR
00:58 53.6 °F 43.3 °F 30.01 in Calm     68 % 0.00 in 0.0 W/m2 CLR
01:03 53.3 °F 43.0 °F 30.00 in Calm   1.2 mph 68 % 0.00 in 0.0 W/m2 CLR
01:04 53.4 °F 43.1 °F 30.00 in Calm   1.2 mph 68 % 0.00 in 0.0 W/m2 CLR
01:09 53.4 °F 43.1 °F 30.00 in Calm   1.2 mph 68 % 0.00 in 0.0 W/m2 CLR
01:10 53.4 °F 43.1 °F 30.00 in Calm   1.2 mph 68 % 0.00 in 0.0 W/m2 CLR
01:15 53.0 °F 42.7 °F 30.00 in Calm   1.2 mph 68 % 0.00 in 0.0 W/m2 CLR
01:20 52.9 °F 43.4 °F 30.00 in Calm     70 % 0.00 in 0.0 W/m2 CLR
01:25 53.0 °F 43.1 °F 30.00 in Calm     69 % 0.00 in 0.0 W/m2 CLR
01:30 52.6 °F 43.1 °F 30.00 in Calm     70 % 0.00 in 0.0 W/m2 CLR
01:35 52.7 °F 43.2 °F 30.00 in Calm     70 % 0.00 in 0.0 W/m2 CLR
01:40 52.9 °F 43.4 °F 29.99 in Calm     70 % 0.00 in 0.0 W/m2 CLR
01:45 52.8 °F 43.3 °F 29.99 in Calm     70 % 0.00 in 0.0 W/m2 CLR
01:50 52.5 °F 43.0 °F 29.99 in Calm     70 % 0.00 in 0.0 W/m2 CLR
01:55 51.9 °F 42.8 °F 29.99 in Calm     71 % 0.00 in 0.0 W/m2 CLR
02:00 51.6 °F 42.9 °F 29.99 in Calm     72 % 0.00 in 0.0 W/m2 CLR
02:05 51.8 °F 43.0 °F 29.99 in Calm     72 % 0.00 in 0.0 W/m2 CLR
02:08 51.8 °F 43.1 °F 29.99 in Calm     72 % 0.00 in 0.0 W/m2 CLR
02:13 51.9 °F 43.2 °F 29.99 in Calm     72 % 0.00 in 0.0 W/m2 CLR
02:18 51.9 °F 43.2 °F 29.99 in Calm     72 % 0.00 in 0.0 W/m2 CLR
02:23 51.6 °F 43.2 °F 29.99 in Calm     73 % 0.00 in 0.0 W/m2 CLR
02:28 51.2 °F 42.8 °F 29.99 in Calm     73 % 0.00 in 0.0 W/m2 CLR
02:33 51.4 °F 43.4 °F 29.99 in Calm     74 % 0.00 in 0.0 W/m2 CLR
02:38 51.5 °F 43.1 °F 29.99 in Calm     73 % 0.00 in 0.0 W/m2 CLR
02:43 51.3 °F 43.3 °F 29.99 in Calm     74 % 0.00 in 0.0 W/m2 CLR
02:48 51.4 °F 43.4 °F 29.98 in Calm     74 % 0.00 in 0.0 W/m2 CLR
02:53 51.4 °F 43.4 °F 29.98 in Calm     74 % 0.00 in 0.0 W/m2 CLR
02:58 51.3 °F 43.3 °F 29.98 in Calm     74 % 0.00 in 0.0 W/m2 CLR
03:03 51.4 °F 43.4 °F 29.98 in Calm     74 % 0.00 in 0.0 W/m2 CLR
03:08 51.4 °F 43.4 °F 29.98 in Calm     74 % 0.00 in 0.0 W/m2 CLR
03:13 51.3 °F 43.3 °F 29.98 in Calm     74 % 0.00 in 0.0 W/m2 CLR
03:18 51.3 °F 43.6 °F 29.98 in Calm     75 % 0.00 in 0.0 W/m2 CLR
03:23 51.3 °F 43.6 °F 29.98 in Calm     75 % 0.00 in 0.0 W/m2 CLR
03:28 51.4 °F 43.4 °F 29.98 in Calm     74 % 0.00 in 0.0 W/m2 CLR
03:38 51.8 °F 44.1 °F 29.98 in Calm     75 % 0.00 in 0.0 W/m2 CLR
03:43 51.8 °F 44.1 °F 29.97 in Calm     75 % 0.00 in 0.0 W/m2 CLR
03:48 51.7 °F 44.4 °F 29.97 in Calm     76 % 0.00 in 0.0 W/m2 CLR
03:53 51.7 °F 43.7 °F 29.97 in Calm     74 % 0.00 in 0.0 W/m2 CLR
03:58 51.9 °F 43.9 °F 29.97 in Calm     74 % 0.00 in 0.0 W/m2 CLR
04:03 51.9 °F 43.9 °F 29.98 in Calm     74 % 0.00 in 0.0 W/m2 CLR
04:08 52.1 °F 44.1 °F 29.98 in Calm     74 % 0.00 in 0.0 W/m2 CLR
04:13 52.0 °F 44.0 °F 29.98 in Calm     74 % 0.00 in 0.0 W/m2 CLR
04:18 52.1 °F 44.1 °F 29.97 in Calm     74 % 0.00 in 0.0 W/m2 CLR
04:23 52.2 °F 43.8 °F 29.97 in Calm     73 % 0.00 in 0.0 W/m2 CLR
04:29 52.3 °F 44.3 °F 29.97 in Calm     74 % 0.00 in 0.0 W/m2 CLR
04:34 52.1 °F 44.1 °F 29.97 in Calm     74 % 0.00 in 0.0 W/m2 CLR
04:39 52.0 °F 44.3 °F 29.97 in Calm     75 % 0.00 in 0.0 W/m2 CLR
04:44 52.2 °F 44.5 °F 29.98 in Calm     75 % 0.00 in 0.0 W/m2 CLR
04:49 52.2 °F 44.9 °F 29.99 in Calm     76 % 0.00 in 0.0 W/m2 CLR
04:54 52.3 °F 45.6 °F 29.99 in Calm     78 % 0.00 in 0.0 W/m2 CLR
04:59 53.0 °F 46.0 °F 30.00 in SW 0.1 mph 1.2 mph 77 % 0.00 in 0.0 W/m2 CLR
05:04 53.9 °F 45.8 °F 30.00 in Calm   1.2 mph 74 % 0.00 in 0.0 W/m2 BKN
05:09 54.4 °F 45.6 °F 30.00 in Calm   1.2 mph 72 % 0.01 in 0.0 W/m2 RA
05:14 54.6 °F 45.0 °F 29.99 in SW 0.6 mph 3.5 mph 70 % 0.01 in 0.0 W/m2 RA
05:19 54.6 °F 45.0 °F 30.00 in Calm   3.5 mph 70 % 0.01 in 0.0 W/m2 BKN
05:24 54.1 °F 44.9 °F 30.00 in Calm   2.3 mph 71 % 0.01 in 0.0 W/m2 BKN
05:29 53.7 °F 45.6 °F 30.00 in Calm     74 % 0.01 in 0.0 W/m2 BKN
05:34 53.2 °F 45.8 °F 30.00 in Calm     76 % 0.02 in 0.0 W/m2 RA
05:39 53.3 °F 46.3 °F 30.00 in Calm     77 % 0.02 in 0.0 W/m2 RA
05:44 53.1 °F 46.8 °F 30.01 in Calm     79 % 0.02 in 0.0 W/m2 BKN
05:49 53.0 °F 47.0 °F 30.02 in Calm     80 % 0.02 in 0.0 W/m2 BKN
05:54 52.8 °F 46.8 °F 30.02 in Calm     80 % 0.03 in 0.0 W/m2 RA
05:59 52.5 °F 46.8 °F 30.02 in Calm   2.3 mph 81 % 0.03 in 0.0 W/m2 RA
06:04 52.3 °F 47.0 °F 30.02 in Calm   2.3 mph 82 % 0.03 in 0.0 W/m2 -RA
06:09 52.2 °F 47.2 °F 30.02 in Calm     83 % 0.03 in 0.0 W/m2 -RA
06:14 51.9 °F 47.2 °F 30.03 in Calm     84 % 0.03 in 0.0 W/m2 -RA
06:19 51.8 °F 47.4 °F 30.03 in Calm     85 % 0.03 in 0.0 W/m2 -RA
06:24 52.1 °F 48.0 °F 30.04 in Calm     86 % 0.03 in 0.0 W/m2 -RA
06:29 52.0 °F 47.9 °F 30.05 in Calm     86 % 0.03 in 5.0 W/m2 -RA
06:34 52.0 °F 48.3 °F 30.05 in Calm   2.3 mph 87 % 0.03 in 7.0 W/m2 -RA
06:39 52.1 °F 48.3 °F 30.04 in Calm   3.5 mph 87 % 0.03 in 16.0 W/m2 -RA
06:44 52.1 °F 48.3 °F 30.04 in Calm   3.5 mph 87 % 0.03 in 9.0 W/m2 -RA
06:49 52.1 °F 48.3 °F 30.05 in Calm     87 % 0.04 in 7.0 W/m2 -RA
06:54 52.1 °F 48.3 °F 30.05 in Calm     87 % 0.03 in 7.0 W/m2 -RA
06:59 52.2 °F 48.8 °F 30.05 in Calm     88 % 0.03 in 9.0 W/m2 -RA
07:04 52.4 °F 48.9 °F 30.05 in Calm     88 % 0.03 in 12.0 W/m2 -RA
07:10 52.3 °F 48.9 °F 30.04 in Calm     88 % 0.02 in 19.0 W/m2 -RA
07:15 52.4 °F 48.9 °F 30.03 in Calm     88 % 0.02 in 26.0 W/m2 -RA
07:20 52.6 °F 49.4 °F 30.04 in Calm     89 % 0.02 in 25.0 W/m2 -RA
07:25 52.6 °F 49.4 °F 30.04 in Calm     89 % 0.00 in 33.0 W/m2 -RA
07:30 52.7 °F 49.5 °F 30.04 in Calm     89 % 0.02 in 33.0 W/m2 -RA
07:35 52.5 °F 49.4 °F 30.04 in Calm     89 % 0.01 in 23.0 W/m2 -RA
07:40 52.5 °F 49.4 °F 30.03 in Calm     89 % 0.01 in 42.0 W/m2 -RA
07:45 52.7 °F 49.5 °F 30.03 in Calm     89 % 0.00 in 58.0 W/m2 -RA
07:50 52.9 °F 49.7 °F 30.03 in Calm     89 % 0.00 in 58.0 W/m2 -RA
07:55 53.1 °F 49.9 °F 30.04 in Calm     89 % 0.00 in 32.0 W/m2 -RA
08:00 53.1 °F 49.9 °F 30.04 in Calm     89 % 0.00 in 28.0 W/m2 -RA
08:05 53.1 °F 49.9 °F 30.04 in Calm     89 % 0.00 in 23.0 W/m2 -RA
08:10 53.0 °F 49.8 °F 30.04 in Calm     89 % 0.00 in 25.0 W/m2 -RA
08:15 52.9 °F 49.7 °F 30.03 in Calm     89 % 0.01 in 28.0 W/m2 -RA
08:20 53.0 °F 49.8 °F 30.03 in Calm     89 % 0.01 in 35.0 W/m2 -RA
08:25 52.8 °F 49.3 °F 30.03 in Calm     88 % 0.02 in 47.0 W/m2 -RA
08:27 53.0 °F 49.8 °F 30.03 in Calm     89 % 0.02 in 54.0 W/m2 -RA
08:32 53.2 °F 50.0 °F 30.03 in Calm     89 % 0.02 in 79.0 W/m2 -RA
08:37 53.3 °F 50.1 °F 30.02 in Calm     89 % 0.03 in 83.0 W/m2 -RA
08:42 52.9 °F 49.7 °F 30.02 in Calm     89 % 0.03 in 70.0 W/m2 -RA
08:47 53.3 °F 50.4 °F 30.02 in Calm     90 % 0.03 in 132.0 W/m2 -RA
08:52 53.2 °F 50.0 °F 30.02 in Calm     89 % 0.03 in 183.0 W/m2 -RA
08:57 53.4 °F 50.2 °F 30.03 in Calm     89 % 0.03 in 134.0 W/m2 -RA
09:02 53.8 °F 50.6 °F 30.04 in Calm     89 % 0.03 in 14.0 W/m2 -RA
09:07 53.8 °F 50.3 °F 30.04 in Calm     88 % 0.03 in 28.0 W/m2 -RA
09:12 53.4 °F 49.9 °F 30.03 in Calm     88 % 0.02 in 21.0 W/m2 -RA
09:17 53.7 °F 50.5 °F 30.04 in Calm     89 % 0.02 in 19.0 W/m2 -RA
09:22 53.7 °F 50.5 °F 30.03 in Calm     89 % 0.02 in 132.0 W/m2 -RA
09:27 53.9 °F 50.7 °F 30.03 in Calm     89 % 0.01 in 53.0 W/m2 -RA
09:32 54.2 °F 51.0 °F 30.03 in Calm     89 % 0.01 in 56.0 W/m2 -RA
09:37 54.2 °F 51.3 °F 30.03 in West 0.2 mph   90 % 0.00 in 69.0 W/m2 -RA
09:42 54.2 °F 51.3 °F 30.03 in Calm   2.3 mph 90 % 0.00 in 114.0 W/m2 -RA
09:47 54.4 °F 51.5 °F 30.03 in Calm   2.3 mph 90 % 0.00 in 146.0 W/m2 -RA
09:52 54.5 °F 51.6 °F 30.03 in Calm   2.3 mph 90 % 0.00 in 165.0 W/m2 -RA
09:58 54.7 °F 51.8 °F 30.02 in SW 0.7 mph 2.3 mph 90 % 0.00 in 209.0 W/m2 -RA
10:03 55.0 °F 52.1 °F 30.03 in SW 0.3 mph 2.3 mph 90 % 0.00 in 383.0 W/m2 OVC
10:08 55.5 °F 52.6 °F 30.03 in WSW 1.0 mph 3.5 mph 90 % 0.00 in 380.0 W/m2 OVC
10:13 56.2 °F 53.3 °F 30.02 in Calm   3.5 mph 90 % 0.00 in 432.0 W/m2 OVC
10:18 56.9 °F 53.4 °F 30.02 in Calm   5.8 mph 88 % 0.00 in 362.0 W/m2 OVC
10:23 57.6 °F 53.8 °F 30.03 in Calm   5.8 mph 87 % 0.00 in 162.0 W/m2 OVC
10:28 58.3 °F 53.8 °F 30.02 in Calm   1.2 mph 85 % 0.00 in 223.0 W/m2 OVC
10:30 58.5 °F 53.7 °F 30.03 in WNW 0.1 mph 6.9 mph 84 % 0.00 in 127.0 W/m2 OVC
10:35 58.5 °F 53.0 °F 30.03 in NNW 2.7 mph 6.9 mph 82 % 0.00 in 262.0 W/m2 OVC
10:40 58.5 °F 52.4 °F 30.03 in NW 1.7 mph 6.9 mph 80 % 0.00 in 193.0 W/m2 OVC
10:45 59.2 °F 52.3 °F 30.03 in WNW 0.3 mph 6.9 mph 78 % 0.00 in 288.0 W/m2 OVC
10:50 60.2 °F 52.6 °F 30.02 in West 0.8 mph 6.9 mph 76 % 0.00 in 285.0 W/m2 OVC
10:55 61.0 °F 53.4 °F 30.02 in WSW 1.7 mph 6.9 mph 76 % 0.00 in 904.0 W/m2 OVC
11:00 62.3 °F 52.8 °F 30.02 in West 1.3 mph 8.1 mph 71 % 0.00 in 905.0 W/m2 OVC
11:05 62.9 °F 51.8 °F 30.02 in NW 2.8 mph 8.1 mph 67 % 0.00 in 918.0 W/m2 CLR
11:10 63.0 °F 51.0 °F 30.02 in NW 1.2 mph 9.2 mph 65 % 0.00 in 919.0 W/m2 CLR
11:15 64.1 °F 52.9 °F 30.02 in WNW 1.6 mph 9.2 mph 67 % 0.00 in 928.0 W/m2 CLR
11:20 64.6 °F 50.8 °F 30.02 in NNW 0.3 mph 11.5 mph 61 % 0.00 in 937.0 W/m2 CLR
11:25 64.7 °F 50.5 °F 30.01 in NW 5.2 mph 15.0 mph 60 % 0.00 in 944.0 W/m2 CLR
11:30 65.0 °F 50.3 °F 30.01 in NW 6.3 mph 15.0 mph 59 % 0.00 in 946.0 W/m2 CLR
11:35 65.5 °F 49.9 °F 30.02 in WNW 7.9 mph 12.7 mph 57 % 0.00 in 962.0 W/m2 CLR
11:40 65.6 °F 50.9 °F 30.01 in NNW 4.6 mph 16.1 mph 59 % 0.00 in 963.0 W/m2 CLR
11:45 66.0 °F 49.8 °F 30.01 in WNW 5.4 mph 16.1 mph 56 % 0.00 in 969.0 W/m2 CLR
11:50 66.4 °F 50.2 °F 30.01 in NW 4.3 mph 12.7 mph 56 % 0.00 in 977.0 W/m2 CLR
11:55 66.9 °F 49.2 °F 30.01 in NNW 5.4 mph 12.7 mph 53 % 0.00 in 983.0 W/m2 CLR
12:00 66.0 °F 49.4 °F 30.01 in NW 1.6 mph 12.7 mph 55 % 0.00 in 997.0 W/m2 CLR
12:03 66.1 °F 49.0 °F 30.01 in NW 6.2 mph 12.7 mph 54 % 0.00 in 990.0 W/m2 FEW
12:08 66.5 °F 48.3 °F 30.01 in WSW 2.1 mph 12.7 mph 52 % 0.00 in 993.0 W/m2 FEW
12:13 66.9 °F 49.7 °F 30.01 in North 0.2 mph 12.7 mph 54 % 0.00 in 997.0 W/m2 FEW
12:18 67.2 °F 49.5 °F 30.01 in WNW 6.8 mph 15.0 mph 53 % 0.00 in 1000.0 W/m2 FEW
12:23 67.4 °F 48.1 °F 30.01 in NW 1.2 mph 15.0 mph 50 % 0.00 in 1004.0 W/m2 FEW
12:28 67.4 °F 49.7 °F 30.00 in West 0.6 mph 15.0 mph 53 % 0.00 in 991.0 W/m2 FEW
12:33 67.8 °F 48.5 °F 30.00 in WNW 5.1 mph 12.7 mph 50 % 0.00 in 1032.0 W/m2 FEW
12:38 69.1 °F 49.1 °F 30.00 in Calm   12.7 mph 49 % 0.00 in 1011.0 W/m2 FEW
12:43 70.2 °F 48.4 °F 30.00 in NW 5.6 mph 12.7 mph 46 % 0.00 in 1018.0 W/m2 FEW
12:48 69.3 °F 47.6 °F 30.00 in North 1.8 mph 15.0 mph 46 % 0.00 in 1035.0 W/m2 FEW
12:53 69.2 °F 47.5 °F 30.00 in NW 4.1 mph 15.0 mph 46 % 0.00 in 1044.0 W/m2 FEW
12:58 69.2 °F 48.1 °F 30.00 in NW 6.4 mph 17.3 mph 47 % 0.00 in 1046.0 W/m2 FEW
13:03 70.1 °F 47.2 °F 30.00 in NW 8.0 mph 17.3 mph 44 % 0.00 in 1049.0 W/m2 SCT
13:08 70.4 °F 46.8 °F 30.00 in NW 5.3 mph 13.8 mph 43 % 0.00 in 1162.0 W/m2 SCT
13:13 70.9 °F 47.9 °F 30.00 in NW 2.3 mph 13.8 mph 44 % 0.00 in 1243.0 W/m2 SCT
13:18 70.2 °F 47.3 °F 30.00 in NW 5.9 mph 12.7 mph 44 % 0.00 in 1192.0 W/m2 SCT
13:23 70.0 °F 48.3 °F 30.00 in NW 6.5 mph 11.5 mph 46 % 0.00 in 1162.0 W/m2 SCT
13:28 70.0 °F 48.8 °F 30.00 in NNW 1.0 mph 16.1 mph 47 % 0.00 in 244.0 W/m2 SCT
13:33 70.5 °F 47.5 °F 30.00 in NW 1.6 mph 16.1 mph 44 % 0.00 in 1155.0 W/m2 SCT
13:38 71.4 °F 47.1 °F 30.00 in NW 6.1 mph 12.7 mph 42 % 0.00 in 1025.0 W/m2 SCT
13:43 72.0 °F 47.6 °F 30.00 in NW 3.9 mph 15.0 mph 42 % 0.00 in 1020.0 W/m2 SCT
13:48 72.0 °F 47.6 °F 30.00 in NNW 4.8 mph 17.3 mph 42 % 0.00 in 1121.0 W/m2 SCT
13:53 71.9 °F 48.8 °F 30.00 in NNW 4.2 mph 17.3 mph 44 % 0.00 in 1151.0 W/m2 SCT
13:58 71.5 °F 47.8 °F 30.00 in NW 4.4 mph 16.1 mph 43 % 0.00 in 1130.0 W/m2 SCT
14:01 71.8 °F 48.7 °F 30.00 in NW 5.2 mph 16.1 mph 44 % 0.00 in 1130.0 W/m2 SCT
14:06 71.7 °F 46.7 °F 30.00 in WNW 6.2 mph 15.0 mph 41 % 0.00 in 1078.0 W/m2 SCT
14:11 71.0 °F 47.4 °F 29.99 in NW 1.9 mph 15.0 mph 43 % 0.00 in 239.0 W/m2 SCT
14:16 71.7 °F 48.6 °F 29.99 in NW 4.3 mph 13.8 mph 44 % 0.00 in 1162.0 W/m2 SCT
14:21 71.3 °F 48.3 °F 29.99 in WNW 6.9 mph 13.8 mph 44 % 0.00 in 297.0 W/m2 SCT
14:26 70.6 °F 48.2 °F 29.99 in North 4.4 mph 15.0 mph 45 % 0.00 in 309.0 W/m2 SCT
14:31 70.8 °F 47.8 °F 29.99 in NNW 6.6 mph 15.0 mph 44 % 0.00 in 271.0 W/m2 SCT
14:36 71.1 °F 48.1 °F 29.99 in NNW 4.0 mph 12.7 mph 44 % 0.00 in 332.0 W/m2 SCT
14:41 72.1 °F 48.4 °F 29.99 in NNW 9.8 mph 15.0 mph 43 % 0.00 in 1132.0 W/m2 SCT
14:46 72.9 °F 49.1 °F 29.99 in NNW 1.9 mph 16.1 mph 43 % 0.00 in 1078.0 W/m2 SCT
14:47 72.8 °F 49.0 °F 29.99 in North 2.0 mph 16.1 mph 43 % 0.00 in 221.0 W/m2 SCT
14:52 71.1 °F 49.8 °F 29.99 in Calm   16.1 mph 47 % 0.00 in 1023.0 W/m2 SCT
14:57 71.6 °F 49.1 °F 29.99 in NNE 1.8 mph 9.2 mph 45 % 0.00 in 1023.0 W/m2 SCT
15:02 71.5 °F 47.8 °F 29.99 in NW 4.7 mph 12.7 mph 43 % 0.00 in 192.0 W/m2 CLR
15:07 70.8 °F 47.2 °F 29.99 in NNW 4.4 mph 13.8 mph 43 % 0.00 in 218.0 W/m2 CLR
15:12 70.4 °F 45.6 °F 29.99 in North 8.7 mph 15.0 mph 41 % 0.00 in 130.0 W/m2 CLR
15:17 70.6 °F 45.7 °F 29.99 in NW 5.2 mph 15.0 mph 41 % 0.00 in 146.0 W/m2 CLR
15:22 71.5 °F 45.9 °F 29.98 in NW 7.7 mph 15.0 mph 40 % 0.00 in 171.0 W/m2 CLR
15:27 72.8 °F 45.7 °F 29.98 in North 9.7 mph 15.0 mph 38 % 0.00 in 171.0 W/m2 CLR
15:32 73.1 °F 46.0 °F 29.98 in NNW 6.9 mph 16.1 mph 38 % 0.00 in 947.0 W/m2 CLR
15:35 72.3 °F 46.6 °F 29.98 in North 1.4 mph 16.1 mph 40 % 0.00 in 105.0 W/m2 CLR
15:40 72.4 °F 46.7 °F 29.98 in NNW 4.9 mph 15.0 mph 40 % 0.00 in 902.0 W/m2 CLR
15:45 71.3 °F 46.4 °F 29.98 in NNW 0.9 mph 13.8 mph 41 % 0.00 in 141.0 W/m2 CLR
15:50 71.8 °F 46.8 °F 29.98 in WNW 8.8 mph 15.0 mph 41 % 0.00 in 316.0 W/m2 CLR
15:55 72.7 °F 47.0 °F 29.98 in North 4.6 mph 15.0 mph 40 % 0.00 in 795.0 W/m2 CLR
16:00 73.1 °F 46.7 °F 29.98 in NNW 11.4 mph 17.3 mph 39 % 0.00 in 796.0 W/m2 CLR
16:05 73.7 °F 44.3 °F 29.98 in NW 7.2 mph 18.4 mph 35 % 0.00 in 782.0 W/m2 FEW
16:10 74.1 °F 46.2 °F 29.98 in WNW 9.5 mph 23.0 mph 37 % 0.00 in 745.0 W/m2 FEW
16:11 74.3 °F 46.3 °F 29.98 in NW 5.9 mph 23.0 mph 37 % 0.00 in 742.0 W/m2 FEW
16:16 74.3 °F 45.6 °F 29.98 in NW 8.8 mph 23.0 mph 36 % 0.00 in 735.0 W/m2 FEW
16:21 74.3 °F 45.6 °F 29.98 in West 3.0 mph 17.3 mph 36 % 0.00 in 766.0 W/m2 FEW
16:26 74.9 °F 45.4 °F 29.98 in NW 11.8 mph 17.3 mph 35 % 0.00 in 728.0 W/m2 FEW
16:31 74.5 °F 46.5 °F 29.98 in WNW 2.8 mph 18.4 mph 37 % 0.00 in 724.0 W/m2 FEW
16:36 75.0 °F 45.5 °F 29.98 in NW 6.5 mph 18.4 mph 35 % 0.00 in 737.0 W/m2 FEW
16:41 74.8 °F 44.5 °F 29.98 in WNW 9.8 mph 16.1 mph 34 % 0.00 in 710.0 W/m2 FEW
16:46 74.9 °F 44.6 °F 29.98 in WNW 6.4 mph 16.1 mph 34 % 0.00 in 719.0 W/m2 FEW
16:51 75.2 °F 43.3 °F 29.98 in NW 9.3 mph 18.4 mph 32 % 0.00 in 656.0 W/m2 FEW
16:56 74.7 °F 44.5 °F 29.98 in WNW 13.3 mph 18.4 mph 34 % 0.00 in 610.0 W/m2 FEW
17:01 74.5 °F 43.5 °F 29.98 in NW 7.6 mph 19.6 mph 33 % 0.00 in 592.0 W/m2 CLR
17:06 74.6 °F 42.8 °F 29.98 in North 7.6 mph 23.0 mph 32 % 0.00 in 577.0 W/m2 CLR
17:11 74.6 °F 42.8 °F 29.98 in NW 6.8 mph 23.0 mph 32 % 0.00 in 555.0 W/m2 CLR
17:16 74.7 °F 43.7 °F 29.98 in NW 9.6 mph 18.4 mph 33 % 0.00 in 540.0 W/m2 CLR
17:21 74.7 °F 43.7 °F 29.98 in NW 5.4 mph 16.1 mph 33 % 0.00 in 522.0 W/m2 CLR
17:26 74.7 °F 44.5 °F 29.97 in NW 1.3 mph 16.1 mph 34 % 0.00 in 504.0 W/m2 CLR
17:31 74.9 °F 43.0 °F 29.97 in WNW 1.2 mph 13.8 mph 32 % 0.00 in 489.0 W/m2 CLR
17:36 74.5 °F 43.5 °F 29.98 in WNW 0.7 mph 12.7 mph 33 % 0.00 in 475.0 W/m2 CLR
17:41 74.8 °F 43.8 °F 29.97 in NW 1.4 mph 12.7 mph 33 % 0.00 in 455.0 W/m2 CLR
17:46 75.2 °F 44.1 °F 29.97 in NNW 1.6 mph 11.5 mph 33 % 0.00 in 434.0 W/m2 CLR
17:51 75.1 °F 44.0 °F 29.97 in West 3.7 mph 13.8 mph 33 % 0.00 in 422.0 W/m2 CLR
17:56 74.9 °F 42.2 °F 29.98 in NW 7.3 mph 16.1 mph 31 % 0.00 in 401.0 W/m2 CLR
18:01 74.9 °F 43.8 °F 29.97 in NNW 1.6 mph 16.1 mph 33 % 0.00 in 385.0 W/m2 CLR
18:06 74.9 °F 43.0 °F 29.98 in WNW 3.6 mph 11.5 mph 32 % 0.00 in 367.0 W/m2 CLR
18:12 74.8 °F 42.1 °F 29.98 in WNW 7.2 mph 12.7 mph 31 % 0.00 in 353.0 W/m2 CLR
18:17 74.7 °F 42.9 °F 29.98 in WNW 3.9 mph 12.7 mph 32 % 0.00 in 336.0 W/m2 CLR
18:22 74.7 °F 42.9 °F 29.97 in NNW 3.6 mph 12.7 mph 32 % 0.00 in 320.0 W/m2 CLR
18:27 74.8 °F 42.1 °F 29.97 in NW 5.1 mph 13.8 mph 31 % 0.00 in 302.0 W/m2 CLR
18:32 74.6 °F 42.0 °F 29.98 in West 5.0 mph 16.1 mph 31 % 0.00 in 288.0 W/m2 CLR
18:37 74.2 °F 42.4 °F 29.98 in WNW 1.7 mph 16.1 mph 32 % 0.00 in 271.0 W/m2 CLR
18:42 74.4 °F 41.8 °F 29.98 in NNW 0.8 mph 13.8 mph 31 % 0.00 in 251.0 W/m2 CLR
18:47 74.3 °F 42.5 °F 29.98 in NW 3.4 mph 15.0 mph 32 % 0.00 in 230.0 W/m2 CLR
18:52 73.9 °F 42.2 °F 29.98 in NW 1.8 mph 15.0 mph 32 % 0.00 in 213.0 W/m2 CLR
18:57 73.7 °F 42.0 °F 29.98 in NW 0.6 mph 12.7 mph 32 % 0.00 in 192.0 W/m2 CLR
19:02 73.7 °F 42.0 °F 29.98 in NNW 5.4 mph 12.7 mph 32 % 0.00 in 174.0 W/m2 CLR
19:07 73.4 °F 41.7 °F 29.98 in NW 3.8 mph 12.7 mph 32 % 0.00 in 127.0 W/m2 CLR
19:12 73.2 °F 42.4 °F 29.98 in NNW 3.7 mph 12.7 mph 33 % 0.00 in 90.0 W/m2 CLR
19:17 72.8 °F 42.8 °F 29.98 in WNW 1.7 mph 11.5 mph 34 % 0.00 in 91.0 W/m2 CLR
19:22 72.6 °F 43.4 °F 29.98 in NNW 1.7 mph 10.4 mph 35 % 0.00 in 95.0 W/m2 CLR
19:27 72.6 °F 43.4 °F 29.98 in NW 0.1 mph 8.1 mph 35 % 0.00 in 84.0 W/m2 CLR
19:32 72.4 °F 43.2 °F 29.98 in NW 1.0 mph 8.1 mph 35 % 0.00 in 37.0 W/m2 CLR
19:37 72.1 °F 42.9 °F 29.98 in NW 1.4 mph 8.1 mph 35 % 0.00 in 35.0 W/m2 CLR
19:43 71.8 °F 43.4 °F 29.98 in Calm   8.1 mph 36 % 0.00 in 32.0 W/m2 CLR
19:48 71.6 °F 43.9 °F 29.98 in NW 0.1 mph 5.8 mph 37 % 0.00 in 32.0 W/m2 CLR
19:53 71.4 °F 43.8 °F 29.98 in Calm   2.3 mph 37 % 0.00 in 30.0 W/m2 CLR
19:58 71.1 °F 44.2 °F 29.98 in Calm   2.3 mph 38 % 0.00 in 25.0 W/m2 CLR
20:03 70.8 °F 43.9 °F 29.98 in Calm   2.3 mph 38 % 0.00 in 18.0 W/m2 CLR
20:08 70.4 °F 43.6 °F 29.98 in Calm     38 % 0.00 in 14.0 W/m2 CLR
20:13 70.0 °F 43.9 °F 29.98 in Calm     39 % 0.00 in 12.0 W/m2 CLR
20:18 69.6 °F 45.5 °F 29.98 in Calm     42 % 0.00 in 7.0 W/m2 CLR
20:20 69.4 °F 44.7 °F 29.98 in Calm     41 % 0.00 in 5.0 W/m2 CLR
20:25 68.7 °F 44.7 °F 29.98 in Calm     42 % 0.00 in 5.0 W/m2 CLR
20:26 68.5 °F 45.1 °F 29.98 in Calm     43 % 0.00 in 0.0 W/m2 CLR
20:31 68.1 °F 44.7 °F 29.99 in Calm     43 % 0.00 in 0.0 W/m2 CLR
20:36 67.6 °F 44.9 °F 29.99 in Calm     44 % 0.00 in 0.0 W/m2 CLR
20:41 67.1 °F 45.0 °F 29.99 in Calm     45 % 0.00 in 0.0 W/m2 CLR
20:46 66.8 °F 45.3 °F 29.99 in Calm     46 % 0.00 in 0.0 W/m2 CLR
20:51 66.6 °F 45.2 °F 29.99 in Calm     46 % 0.00 in 0.0 W/m2 CLR
20:56 65.9 °F 45.6 °F 29.99 in Calm     48 % 0.00 in 0.0 W/m2 CLR
21:01 65.4 °F 45.7 °F 29.99 in Calm     49 % 0.00 in 0.0 W/m2 CLR
21:06 64.9 °F 45.8 °F 29.99 in Calm     50 % 0.00 in 0.0 W/m2 CLR
21:11 64.2 °F 46.7 °F 30.00 in Calm     53 % 0.00 in 0.0 W/m2 CLR
21:16 63.9 °F 46.4 °F 30.00 in Calm     53 % 0.00 in 0.0 W/m2 CLR
21:21 63.7 °F 46.2 °F 30.00 in Calm     53 % 0.00 in 0.0 W/m2 CLR
21:26 63.3 °F 46.9 °F 30.00 in Calm     55 % 0.00 in 0.0 W/m2 CLR
21:31 62.8 °F 46.9 °F 30.00 in Calm     56 % 0.00 in 0.0 W/m2 CLR
21:36 62.4 °F 46.5 °F 30.00 in Calm     56 % 0.00 in 0.0 W/m2 CLR
21:41 62.3 °F 46.9 °F 30.00 in Calm     57 % 0.00 in 0.0 W/m2 CLR
21:46 62.1 °F 47.6 °F 30.00 in Calm     59 % 0.00 in 0.0 W/m2 CLR
21:51 61.8 °F 47.8 °F 30.00 in Calm     60 % 0.00 in 0.0 W/m2 CLR
21:56 61.2 °F 47.6 °F 30.01 in Calm     61 % 0.00 in 0.0 W/m2 CLR
22:01 60.7 °F 47.6 °F 30.01 in Calm     62 % 0.00 in 0.0 W/m2 CLR
22:06 60.4 °F 47.7 °F 30.01 in Calm     63 % 0.00 in 0.0 W/m2 CLR
22:11 59.9 °F 48.1 °F 30.01 in Calm     65 % 0.00 in 0.0 W/m2 CLR
22:17 59.5 °F 47.7 °F 30.01 in Calm     65 % 0.00 in 0.0 W/m2 CLR
22:22 59.4 °F 47.6 °F 30.01 in Calm     65 % 0.00 in 0.0 W/m2 CLR
22:27 59.2 °F 47.8 °F 30.01 in Calm     66 % 0.00 in 0.0 W/m2 CLR
22:32 59.2 °F 47.8 °F 30.01 in Calm     66 % 0.00 in 0.0 W/m2 CLR
22:37 59.1 °F 48.1 °F 30.01 in Calm     67 % 0.00 in 0.0 W/m2 CLR
22:42 58.6 °F 47.7 °F 30.01 in Calm     67 % 0.00 in 0.0 W/m2 CLR
22:47 58.4 °F 47.9 °F 30.01 in Calm     68 % 0.00 in 0.0 W/m2 CLR
22:52 58.3 °F 47.8 °F 30.01 in Calm     68 % 0.00 in 0.0 W/m2 CLR
22:57 57.8 °F 47.7 °F 30.01 in Calm     69 % 0.00 in 0.0 W/m2 CLR
23:02 57.4 °F 47.3 °F 30.01 in Calm     69 % 0.00 in 0.0 W/m2 CLR
23:07 57.4 °F 47.7 °F 30.02 in Calm     70 % 0.00 in 0.0 W/m2 CLR
23:12 57.4 °F 48.1 °F 30.02 in Calm     71 % 0.00 in 0.0 W/m2 CLR
23:17 57.2 °F 47.9 °F 30.02 in Calm     71 % 0.00 in 0.0 W/m2 CLR
23:22 56.8 °F 47.5 °F 30.02 in Calm     71 % 0.00 in 0.0 W/m2 CLR
23:27 56.5 °F 47.6 °F 30.02 in Calm     72 % 0.00 in 0.0 W/m2 CLR
23:32 56.5 °F 47.6 °F 30.02 in Calm     72 % 0.00 in 0.0 W/m2 CLR
23:37 56.4 °F 47.9 °F 30.02 in Calm     73 % 0.00 in 0.0 W/m2 CLR
23:42 56.4 °F 47.9 °F 30.02 in Calm     73 % 0.00 in 0.0 W/m2 CLR
23:47 56.1 °F 47.9 °F 30.02 in Calm     74 % 0.00 in 0.0 W/m2 CLR
23:52 56.0 °F 47.8 °F 30.02 in Calm     74 % 0.00 in 0.0 W/m2 CLR
23:57 55.7 °F 47.9 °F 30.02 in Calm     75 % 0.00 in 0.0 W/m2 CLR
23:58 55.7 °F 47.9 °F 30.02 in Calm     75 % 0.00 in 0.0 W/m2 CLR
Air Products Campus Weather
Compliments of Weather Underground - 3.5 mb